View from home
Forecast from Yr Norsk

 

Here is the weather forecast for Austad/Fjell. First a detailed graph showing the forecast hour-by-hour. Then follows a forecast for the next 10 days.All forecasts are updated regulary.

Weather forecast is built on data from yr.no, delivered by Norwegian Meteorological Institute and NRK.

NB: The units in the first chart are metrical!

 

Meteogram for Austad/Fjell

 

Date
Time
Fc
Precip
Temp
Hum
Wind (gust)
 
Press
2024.06.25 06:00 PartlyCloud 56.8°F 92.7% From south-southeast 5.4mph (12.3mph) 1,019.4hPa
  07:00 PartlyCloud 58.3°F 88.0% From south-southeast 5.8mph (13.6mph) 1,019.4hPa
  08:00 PartlyCloud 60.4°F 81.3% From south-southeast 6.0mph (14.5mph) 1,019.6hPa
  09:00 LightCloud 63.1°F 74.0% From southeast 5.8mph (14.8mph) 1,019.6hPa
  10:00 Sun 66.4°F 67.4% From southeast 6.0mph (15.7mph) 1,019.3hPa
  11:00 LightCloud 69.3°F 62.3% From southeast 6.5mph (17.0mph) 1,019.0hPa
  12:00 Sun 71.4°F 59.6% From southeast 7.4mph (18.6mph) 1,019.0hPa
  13:00 Sun 72.7°F 58.6% From southeast 7.6mph (19.5mph) 1,018.9hPa
  14:00 Sun 73.6°F 56.8% From southeast 8.1mph (20.1mph) 1,018.6hPa
  15:00 Sun 74.3°F 55.1% From southeast 8.3mph (20.8mph) 1,018.2hPa
  16:00 Sun 74.3°F 55.2% From southeast 8.1mph (20.8mph) 1,017.8hPa
  17:00 Sun 73.6°F 58.0% From southeast 8.1mph (19.9mph) 1,017.6hPa
  18:00 LightCloud 72.3°F 62.3% From southeast 8.1mph (19.7mph) 1,017.3hPa
  19:00 LightCloud 71.1°F 65.2% From southeast 7.4mph (19.5mph) 1,017.0hPa
  20:00 Sun 69.4°F 67.4% From southeast 6.9mph (17.7mph) 1,016.7hPa
  21:00 Sun 67.5°F 70.4% From southeast 6.0mph (16.1mph) 1,016.8hPa
  22:00 Sun 64.9°F 75.0% From east-southeast 4.7mph (13.6mph) 1,017.0hPa
  23:00 Sun 62.6°F 80.0% From east-southeast 3.4mph (10.3mph) 1,016.9hPa
  00:00 Sun 61.0°F 84.5% From east-southeast 2.7mph (7.2mph) 1,016.9hPa
2024.06.26 01:00 Sun 59.7°F 88.0% From east-southeast 2.2mph (6.0mph) 1,017.0hPa
  02:00 Sun 58.8°F 90.5% From east-southeast 1.8mph (4.9mph) 1,017.0hPa
  03:00 LightCloud 58.5°F 92.0% From east-southeast 1.8mph (4.3mph) 1,016.9hPa
  04:00 LightCloud 57.7°F 93.6% From east-southeast 1.8mph (4.3mph) 1,016.8hPa
  05:00 LightCloud 57.0°F 94.7% From east-northeast 1.6mph (3.8mph) 1,016.5hPa
  06:00 LightCloud 57.9°F 93.1% From east-northeast 1.6mph (4.3mph) 1,016.4hPa
  07:00 PartlyCloud 59.4°F 89.6% From east-southeast 2.0mph (5.8mph) 1,016.5hPa
  08:00 PartlyCloud 61.2°F 85.8% From east-southeast 2.7mph (7.4mph) 1,016.5hPa
  09:00 PartlyCloud 63.9°F 82.1% From east-southeast 3.4mph (9.4mph) 1,016.5hPa
  10:00 PartlyCloud 66.7°F 77.0% From east 3.8mph (10.5mph) 1,016.5hPa
  11:00 PartlyCloud 69.4°F 72.6% From east 4.3mph (11.9mph) 1,016.4hPa
  12:00 PartlyCloud 71.4°F 68.7% From east-southeast 4.9mph (13.4mph) 1,016.3hPa
  13:00 PartlyCloud 73.4°F 65.0% From east-southeast 5.6mph (15.0mph) 1,016.2hPa
  14:00 PartlyCloud 74.8°F 62.5% From east-southeast 6.0mph (16.1mph) 1,016.0hPa
  15:00 LightCloud 76.1°F 60.8% From east-southeast 6.3mph (16.6mph) 1,015.8hPa
  16:00 LightCloud 76.8°F 59.6% From east-southeast 6.7mph (17.2mph) 1,015.4hPa
  17:00 LightCloud 76.6°F 59.3% From east-southeast 6.5mph (17.2mph) 1,015.0hPa
  18:00 Sun 75.9°F 59.9% From southeast 6.7mph (16.8mph) 1,014.8hPa
  19:00 Sun 74.5°F 61.1% From east-southeast 6.5mph (16.6mph) 1,014.7hPa
  20:00 Sun 72.3°F 63.9% From east-southeast 5.8mph (15.4mph) 1,014.5hPa
  21:00 Sun 69.8°F 66.8% From east-southeast 5.1mph (13.6mph) 1,014.6hPa
  22:00 Sun 66.7°F 70.4% From east-southeast 4.0mph (11.2mph) 1,014.9hPa
  23:00 Sun 63.9°F 73.9% From east-southeast 2.9mph (8.9mph) 1,015.3hPa
  00:00 Sun 61.9°F 77.5% From southeast 2.2mph (6.3mph) 1,015.5hPa
2024.06.27 01:00 Sun 60.3°F 81.5% From southeast 1.6mph (4.9mph) 1,015.5hPa
  02:00 Sun 58.8°F 86.9% From south-southwest 1.3mph (3.6mph) 1,015.6hPa
  03:00 Sun 57.7°F 90.0% From west-southwest 1.8mph (3.6mph) 1,015.4hPa
  04:00 Sun 57.0°F 90.8% From west 2.2mph (4.5mph) 1,015.1hPa
  05:00 Sun 56.8°F 90.8% From southwest 1.8mph (4.3mph) 1,015.2hPa
  06:00 Sun 58.1°F 88.0% From southwest 0.9mph (3.8mph) 1,015.2hPa
  07:00 Sun 60.4°F 81.4% From east-southeast 1.8mph (4.9mph) 1,015.3hPa
  08:00 Sun 63.1°F 74.5% From east 2.7mph (7.6mph) 1,015.1hPa
  09:00 Sun 66.2°F 69.2% From east 3.4mph (9.6mph) 1,014.9hPa
  10:00 Sun 69.3°F 62.5% From east 3.8mph (11.4mph) 1,014.8hPa
  11:00 Sun 72.1°F 54.7% From east-southeast 4.5mph (13.2mph) 1,014.6hPa
  12:00 Sun 74.1°F 49.8% From east-southeast 4.9mph (14.5mph) 1,014.2hPa
  13:00 LightCloud 75.6°F 47.4% From east-southeast 5.8mph (16.8mph) 1,013.6hPa
  14:00 LightCloud 76.6°F 43.6% From east-southeast 6.7mph (18.1mph) 1,013.0hPa
  20:00 LightCloud 73.6°F 64.3% From south-southeast 5.4mph ( mph) 1,011.3hPa
  02:00 LightCloud 63.9°F 84.4% From east-southeast 3.6mph ( mph) 1,010.0hPa
2024.06.28 08:00 LightRainSun 0.01 - 0.33 in 65.7°F 96.1% From east-southeast 5.8mph ( mph) 1,008.3hPa
  14:00 LightRain 0.01 - 0.38 in 69.3°F 84.9% From south-southeast 8.9mph ( mph) 1,005.2hPa
  20:00 Cloud 0.00 - 0.21 in 68.7°F 78.4% From south-southeast 7.4mph ( mph) 1,002.9hPa
  02:00 Cloud 0.00 - 0.04 in 59.7°F 90.1% From west-southwest 6.7mph ( mph) 1,003.1hPa
2024.06.29 08:00 Cloud 60.1°F 64.8% From west-southwest 8.7mph ( mph) 1,003.3hPa
  14:00 LightCloud 69.4°F 42.0% From west-southwest 10.1mph ( mph) 1,008.0hPa
  20:00 PartlyCloud 65.3°F 52.9% From west-southwest 8.7mph ( mph) 1,008.0hPa
  02:00 Sun 53.6°F 75.9% From west-southwest 5.8mph ( mph) 1,010.2hPa
2024.06.30 08:00 Sun 57.0°F 67.7% From west 5.4mph ( mph) 1,010.8hPa
  14:00 LightCloud 66.6°F 46.1% From west-southwest 7.8mph ( mph) 1,010.6hPa
  20:00 Cloud 63.0°F 70.4% From south-southeast 5.8mph ( mph) 1,009.4hPa
  02:00 Cloud 55.4°F 85.5% From west-northwest 4.7mph ( mph) 1,009.2hPa
2024.07.01 08:00 Cloud 59.0°F 67.8% From west-northwest 4.3mph ( mph) 1,008.0hPa
  14:00 LightCloud 70.0°F 47.0% From west-southwest 5.6mph ( mph) 1,010.2hPa
  20:00 PartlyCloud 67.1°F 61.3% From south-southeast 6.0mph ( mph) 1,007.2hPa
  02:00 LightCloud 55.9°F 85.3% From west-northwest 4.5mph ( mph) 1,007.9hPa
2024.07.02 08:00 PartlyCloud 60.3°F 85.4% From west-northwest 4.3mph ( mph) 1,008.9hPa
  14:00 Cloud 69.4°F 64.6% From south-southeast 7.2mph ( mph) 1,007.3hPa
  20:00 Cloud 65.8°F 64.4% From south-southeast 6.3mph ( mph) 1,006.1hPa
  02:00 PartlyCloud 56.1°F 82.6% From west-northwest 4.5mph ( mph) 1,006.4hPa
2024.07.03 08:00 Cloud 58.3°F 80.7% From west-southwest 4.5mph ( mph) 1,005.8hPa
  14:00 LightRain 0.00 - 0.08 in 66.0°F 80.2% From south-southwest 8.1mph ( mph) 1,005.3hPa
  20:00 LightRain 0.00 - 0.10 in 60.8°F 84.6% From south 6.3mph ( mph) 1,003.9hPa
  02:00 Cloud 54.5°F 88.4% From west-northwest 5.6mph ( mph) 1,005.3hPa
2024.07.04 08:00 Cloud 56.1°F 69.8% From west-northwest 5.6mph ( mph) 1,002.3hPa
  14:00 PartlyCloud 66.7°F 66.0% From south-southeast 8.3mph ( mph) 1,005.0hPa
  20:00 Cloud 62.6°F 72.6% From south-southwest 7.6mph ( mph) 1,004.5hPa
  02:00 PartlyCloud 54.0°F 81.8% From west-northwest 5.6mph ( mph) 1,006.1hPa
Facebook Facebook Messenger Instagram E-mail